sensor_id;sensor_type;location;lat;lon;timestamp;pressure;altitude;pressure_sealevel;temperature;humidity
47104;BME280;32853;52.164;5.400;2023-03-22T00:01:19;100816.78;;;11.90;100.00
47104;BME280;32853;52.164;5.400;2023-03-22T00:03:46;100847.25;;;12.12;100.00
47104;BME280;32853;52.164;5.400;2023-03-22T00:06:12;100821.72;;;11.97;100.00
47104;BME280;32853;52.164;5.400;2023-03-22T00:08:38;100844.63;;;12.12;100.00
47104;BME280;32853;52.164;5.400;2023-03-22T00:11:04;100825.25;;;11.96;100.00
47104;BME280;32853;52.164;5.400;2023-03-22T00:13:32;100838.69;;;12.08;100.00
47104;BME280;32853;52.164;5.400;2023-03-22T00:15:57;100784.28;;;11.74;100.00
47104;BME280;32853;52.164;5.400;2023-03-22T00:18:24;100833.72;;;12.02;100.00
47104;BME280;32853;52.164;5.400;2023-03-22T00:20:52;100727.25;;;11.23;100.00
47104;BME280;32853;52.164;5.400;2023-03-22T00:23:18;100812.97;;;11.98;100.00
47104;BME280;32853;52.164;5.400;2023-03-22T00:25:46;100778.84;;;11.79;100.00
47104;BME280;32853;52.164;5.400;2023-03-22T00:28:12;100745.06;;;11.54;100.00
47104;BME280;32853;52.164;5.400;2023-03-22T00:30:39;100688.81;;;11.23;100.00
47104;BME280;32853;52.164;5.400;2023-03-22T00:33:05;100795.09;;;11.87;100.00
47104;BME280;32853;52.164;5.400;2023-03-22T00:35:31;100809.59;;;11.94;100.00
47104;BME280;32853;52.164;5.400;2023-03-22T00:37:56;100811.47;;;11.92;100.00
47104;BME280;32853;52.164;5.400;2023-03-22T00:40:30;100783.38;;;11.75;100.00
47104;BME280;32853;52.164;5.400;2023-03-22T00:42:55;100789.16;;;11.63;100.00
47104;BME280;32853;52.164;5.400;2023-03-22T00:45:21;100806.03;;;11.76;100.00
47104;BME280;32853;52.164;5.400;2023-03-22T00:47:46;100810.47;;;11.74;100.00
47104;BME280;32853;52.164;5.400;2023-03-22T00:50:15;100799.03;;;11.77;100.00
47104;BME280;32853;52.164;5.400;2023-03-22T00:52:43;100779.41;;;11.67;100.00
47104;BME280;32853;52.164;5.400;2023-03-22T00:55:08;100792.09;;;11.76;100.00
47104;BME280;32853;52.164;5.400;2023-03-22T00:57:46;100788.03;;;11.89;100.00
47104;BME280;32853;52.164;5.400;2023-03-22T01:00:13;100794.97;;;11.90;100.00
47104;BME280;32853;52.164;5.400;2023-03-22T01:02:52;100788.28;;;11.83;100.00
47104;BME280;32853;52.164;5.400;2023-03-22T01:05:18;100783.72;;;11.68;100.00
47104;BME280;32853;52.164;5.400;2023-03-22T01:07:46;100781.66;;;11.74;100.00
47104;BME280;32853;52.164;5.400;2023-03-22T01:10:20;100757.44;;;11.69;100.00
47104;BME280;32853;52.164;5.400;2023-03-22T01:12:52;100717.84;;;11.38;100.00
47104;BME280;32853;52.164;5.400;2023-03-22T01:15:24;100751.59;;;11.64;100.00
47104;BME280;32853;52.164;5.400;2023-03-22T01:17:55;100755.44;;;11.74;100.00
47104;BME280;32853;52.164;5.400;2023-03-22T01:20:21;100700.53;;;11.54;100.00
47104;BME280;32853;52.164;5.400;2023-03-22T01:23:08;100750.28;;;11.73;100.00
47104;BME280;32853;52.164;5.400;2023-03-22T01:25:33;100726.72;;;11.54;100.00
47104;BME280;32853;52.164;5.400;2023-03-22T01:28:02;100724.81;;;11.57;100.00
47104;BME280;32853;52.164;5.400;2023-03-22T01:30:28;100730.06;;;11.76;100.00
47104;BME280;32853;52.164;5.400;2023-03-22T01:33:10;100735.53;;;11.90;100.00
47104;BME280;32853;52.164;5.400;2023-03-22T01:35:49;100717.72;;;11.78;100.00
47104;BME280;32853;52.164;5.400;2023-03-22T01:38:14;100718.78;;;11.74;100.00
47104;BME280;32853;52.164;5.400;2023-03-22T01:40:40;100719.63;;;11.75;100.00
47104;BME280;32853;52.164;5.400;2023-03-22T01:43:13;100679.28;;;11.60;100.00
47104;BME280;32853;52.164;5.400;2023-03-22T01:45:46;100722.41;;;11.72;100.00
47104;BME280;32853;52.164;5.400;2023-03-22T01:48:36;100695.34;;;11.71;100.00
47104;BME280;32853;52.164;5.400;2023-03-22T01:51:13;100708.25;;;11.76;100.00
47104;BME280;32853;52.164;5.400;2023-03-22T01:54:02;100693.03;;;11.84;100.00
47104;BME280;32853;52.164;5.400;2023-03-22T01:56:35;100662.66;;;11.61;100.00
47104;BME280;32853;52.164;5.400;2023-03-22T01:59:02;100687.72;;;11.85;100.00
47104;BME280;32853;52.164;5.400;2023-03-22T02:01:36;100681.69;;;11.83;100.00
47104;BME280;32853;52.164;5.400;2023-03-22T02:04:22;100676.19;;;11.89;100.00
47104;BME280;32853;52.164;5.400;2023-03-22T02:06:52;100672.91;;;11.84;100.00
47104;BME280;32853;52.164;5.400;2023-03-22T02:09:20;100669.72;;;11.78;100.00
47104;BME280;32853;52.164;5.400;2023-03-22T02:45:33;100603.59;;;11.73;100.00
47104;BME280;32853;52.164;5.400;2023-03-22T02:48:10;100593.94;;;11.56;100.00
47104;BME280;32853;52.164;5.400;2023-03-22T02:53:32;100535.38;;;11.21;100.00
47104;BME280;32853;52.164;5.400;2023-03-22T02:56:13;100599.19;;;11.73;100.00
47104;BME280;32853;52.164;5.400;2023-03-22T02:58:55;100597.41;;;11.74;100.00
47104;BME280;32853;52.164;5.400;2023-03-22T03:01:28;100596.03;;;11.67;100.00
47104;BME280;32853;52.164;5.400;2023-03-22T03:03:58;100543.28;;;11.38;100.00
47104;BME280;32853;52.164;5.400;2023-03-22T03:06:27;100583.66;;;11.51;100.00
47104;BME280;32853;52.164;5.400;2023-03-22T03:09:03;100586.31;;;11.69;100.00
47104;BME280;32853;52.164;5.400;2023-03-22T03:11:36;100585.88;;;11.78;100.00
47104;BME280;32853;52.164;5.400;2023-03-22T03:14:01;100545.09;;;11.55;100.00
47104;BME280;32853;52.164;5.400;2023-03-22T03:16:29;100571.00;;;11.78;100.00
47104;BME280;32853;52.164;5.400;2023-03-22T03:19:06;100573.63;;;11.78;100.00
47104;BME280;32853;52.164;5.400;2023-03-22T03:24:36;100569.78;;;11.85;100.00
47104;BME280;32853;52.164;5.400;2023-03-22T03:27:24;100592.53;;;11.85;100.00
47104;BME280;32853;52.164;5.400;2023-03-22T03:30:09;100589.25;;;11.99;100.00
47104;BME280;32853;52.164;5.400;2023-03-22T03:33:05;100600.69;;;11.79;100.00
47104;BME280;32853;52.164;5.400;2023-03-22T03:35:57;100582.84;;;11.87;100.00
47104;BME280;32853;52.164;5.400;2023-03-22T03:38:33;100584.63;;;11.86;100.00
47104;BME280;32853;52.164;5.400;2023-03-22T03:41:03;100507.94;;;11.47;100.00
47104;BME280;32853;52.164;5.400;2023-03-22T03:43:31;100570.66;;;11.86;100.00
47104;BME280;32853;52.164;5.400;2023-03-22T03:46:01;100568.34;;;11.97;100.00
47104;BME280;32853;52.164;5.400;2023-03-22T03:48:28;100573.06;;;11.90;100.00
47104;BME280;32853;52.164;5.400;2023-03-22T03:51:01;100577.09;;;11.98;100.00
47104;BME280;32853;52.164;5.400;2023-03-22T03:53:27;100567.28;;;12.01;100.00
47104;BME280;32853;52.164;5.400;2023-03-22T03:55:52;100517.38;;;11.68;100.00
47104;BME280;32853;52.164;5.400;2023-03-22T03:58:23;100558.41;;;12.04;100.00
47104;BME280;32853;52.164;5.400;2023-03-22T04:00:48;100546.31;;;12.01;100.00
47104;BME280;32853;52.164;5.400;2023-03-22T04:03:21;100566.09;;;12.07;100.00
47104;BME280;32853;52.164;5.400;2023-03-22T04:05:48;100581.72;;;12.10;100.00
47104;BME280;32853;52.164;5.400;2023-03-22T04:08:14;100533.44;;;11.79;100.00
47104;BME280;32853;52.164;5.400;2023-03-22T04:10:53;100579.00;;;12.11;100.00
47104;BME280;32853;52.164;5.400;2023-03-22T04:13:19;100577.53;;;12.06;100.00
47104;BME280;32853;52.164;5.400;2023-03-22T04:15:58;100554.09;;;12.03;100.00
47104;BME280;32853;52.164;5.400;2023-03-22T04:18:28;100563.13;;;12.14;100.00
47104;BME280;32853;52.164;5.400;2023-03-22T04:20:54;100562.44;;;12.11;100.00
47104;BME280;32853;52.164;5.400;2023-03-22T04:23:21;100566.28;;;12.21;100.00
47104;BME280;32853;52.164;5.400;2023-03-22T04:25:57;100547.00;;;12.05;100.00
47104;BME280;32853;52.164;5.400;2023-03-22T04:28:34;100563.59;;;12.23;100.00
47104;BME280;32853;52.164;5.400;2023-03-22T04:31:14;100566.97;;;12.25;100.00
47104;BME280;32853;52.164;5.400;2023-03-22T04:33:47;100545.00;;;12.10;100.00
47104;BME280;32853;52.164;5.400;2023-03-22T04:36:13;100550.63;;;12.19;100.00
47104;BME280;32853;52.164;5.400;2023-03-22T04:38:42;100537.28;;;12.24;100.00
47104;BME280;32853;52.164;5.400;2023-03-22T04:41:09;100501.75;;;12.01;100.00
47104;BME280;32853;52.164;5.400;2023-03-22T04:43:39;100548.69;;;12.23;100.00
47104;BME280;32853;52.164;5.400;2023-03-22T04:46:10;100493.06;;;12.01;100.00
47104;BME280;32853;52.164;5.400;2023-03-22T04:48:40;100540.09;;;12.37;100.00
47104;BME280;32853;52.164;5.400;2023-03-22T04:51:07;100541.44;;;12.28;100.00
47104;BME280;32853;52.164;5.400;2023-03-22T04:53:33;100535.41;;;12.26;100.00
47104;BME280;32853;52.164;5.400;2023-03-22T04:56:05;100536.47;;;12.39;100.00
47104;BME280;32853;52.164;5.400;2023-03-22T04:58:40;100532.03;;;12.24;100.00
47104;BME280;32853;52.164;5.400;2023-03-22T05:01:07;100526.56;;;12.11;100.00
47104;BME280;32853;52.164;5.400;2023-03-22T05:03:40;100526.03;;;12.05;100.00
47104;BME280;32853;52.164;5.400;2023-03-22T05:06:16;100499.72;;;12.06;100.00
47104;BME280;32853;52.164;5.400;2023-03-22T05:08:41;100521.84;;;12.18;100.00
47104;BME280;32853;52.164;5.400;2023-03-22T05:11:11;100427.84;;;11.77;100.00
47104;BME280;32853;52.164;5.400;2023-03-22T05:13:37;100505.13;;;12.20;100.00
47104;BME280;32853;52.164;5.400;2023-03-22T05:16:03;100516.91;;;12.29;100.00
47104;BME280;32853;52.164;5.400;2023-03-22T05:18:29;100484.84;;;12.07;100.00
47104;BME280;32853;52.164;5.400;2023-03-22T05:21:03;100524.72;;;12.13;100.00
47104;BME280;32853;52.164;5.400;2023-03-22T05:23:32;100506.97;;;12.18;100.00
47104;BME280;32853;52.164;5.400;2023-03-22T05:26:17;100520.38;;;12.30;100.00
47104;BME280;32853;52.164;5.400;2023-03-22T05:28:55;100530.94;;;12.28;100.00
47104;BME280;32853;52.164;5.400;2023-03-22T05:31:32;100477.16;;;12.04;100.00
47104;BME280;32853;52.164;5.400;2023-03-22T05:33:58;100516.31;;;12.24;100.00
47104;BME280;32853;52.164;5.400;2023-03-22T05:36:24;100478.63;;;11.92;100.00
47104;BME280;32853;52.164;5.400;2023-03-22T05:38:49;100507.22;;;12.14;100.00
47104;BME280;32853;52.164;5.400;2023-03-22T05:41:15;100410.75;;;11.53;100.00
47104;BME280;32853;52.164;5.400;2023-03-22T05:43:40;100488.41;;;12.06;100.00
47104;BME280;32853;52.164;5.400;2023-03-22T05:46:10;100398.78;;;11.30;100.00
47104;BME280;32853;52.164;5.400;2023-03-22T05:48:42;100512.47;;;11.97;100.00
47104;BME280;32853;52.164;5.400;2023-03-22T05:51:08;100512.69;;;11.92;100.00
47104;BME280;32853;52.164;5.400;2023-03-22T05:53:35;100406.66;;;11.30;100.00
47104;BME280;32853;52.164;5.400;2023-03-22T05:56:00;100488.19;;;11.93;100.00
47104;BME280;32853;52.164;5.400;2023-03-22T05:58:43;100476.88;;;11.92;100.00
47104;BME280;32853;52.164;5.400;2023-03-22T06:01:11;100460.97;;;11.78;100.00
47104;BME280;32853;52.164;5.400;2023-03-22T06:03:37;100497.66;;;11.96;100.00
47104;BME280;32853;52.164;5.400;2023-03-22T06:06:05;100501.59;;;12.04;100.00
47104;BME280;32853;52.164;5.400;2023-03-22T06:08:32;100502.13;;;12.11;100.00
47104;BME280;32853;52.164;5.400;2023-03-22T06:10:59;100491.03;;;12.06;100.00
47104;BME280;32853;52.164;5.400;2023-03-22T06:13:26;100483.78;;;11.93;100.00
47104;BME280;32853;52.164;5.400;2023-03-22T06:15:52;100487.03;;;11.99;100.00
47104;BME280;32853;52.164;5.400;2023-03-22T06:18:37;100497.81;;;12.10;100.00
47104;BME280;32853;52.164;5.400;2023-03-22T06:21:03;100414.91;;;11.57;100.00
47104;BME280;32853;52.164;5.400;2023-03-22T06:23:28;100521.94;;;11.82;100.00
47104;BME280;32853;52.164;5.400;2023-03-22T06:25:57;100507.72;;;11.87;100.00
47104;BME280;32853;52.164;5.400;2023-03-22T06:28:27;100389.25;;;11.29;100.00
47104;BME280;32853;52.164;5.400;2023-03-22T06:30:54;100423.22;;;11.65;100.00
47104;BME280;32853;52.164;5.400;2023-03-22T06:33:20;100504.53;;;11.98;100.00
47104;BME280;32853;52.164;5.400;2023-03-22T06:35:53;100438.53;;;11.73;100.00
47104;BME280;32853;52.164;5.400;2023-03-22T06:38:28;100494.34;;;12.09;100.00
47104;BME280;32853;52.164;5.400;2023-03-22T06:40:54;100505.28;;;12.17;100.00
47104;BME280;32853;52.164;5.400;2023-03-22T06:43:30;100460.22;;;11.93;100.00
47104;BME280;32853;52.164;5.400;2023-03-22T06:45:55;100460.97;;;11.96;100.00
47104;BME280;32853;52.164;5.400;2023-03-22T06:48:25;100510.66;;;12.32;100.00
47104;BME280;32853;52.164;5.400;2023-03-22T06:50:50;100443.63;;;11.93;100.00
47104;BME280;32853;52.164;5.400;2023-03-22T06:53:26;100497.22;;;12.38;100.00
47104;BME280;32853;52.164;5.400;2023-03-22T06:55:52;100505.09;;;12.38;100.00
47104;BME280;32853;52.164;5.400;2023-03-22T06:58:23;100497.84;;;12.43;100.00
47104;BME280;32853;52.164;5.400;2023-03-22T07:00:49;100457.41;;;11.97;100.00
47104;BME280;32853;52.164;5.400;2023-03-22T07:03:19;100509.94;;;12.45;100.00
47104;BME280;32853;52.164;5.400;2023-03-22T07:05:51;100482.81;;;12.29;100.00
47104;BME280;32853;52.164;5.400;2023-03-22T07:08:22;100502.56;;;12.36;100.00
47104;BME280;32853;52.164;5.400;2023-03-22T07:10:49;100505.53;;;12.46;100.00
47104;BME280;32853;52.164;5.400;2023-03-22T07:13:20;100507.03;;;12.34;100.00
47104;BME280;32853;52.164;5.400;2023-03-22T07:15:58;100505.44;;;12.32;100.00
47104;BME280;32853;52.164;5.400;2023-03-22T07:18:23;100505.00;;;12.39;100.00
47104;BME280;32853;52.164;5.400;2023-03-22T07:20:50;100455.72;;;11.96;100.00
47104;BME280;32853;52.164;5.400;2023-03-22T07:23:16;100494.19;;;12.12;100.00
47104;BME280;32853;52.164;5.400;2023-03-22T07:25:43;100490.34;;;12.19;100.00
47104;BME280;32853;52.164;5.400;2023-03-22T07:28:09;100463.00;;;11.90;100.00
47104;BME280;32853;52.164;5.400;2023-03-22T07:30:38;100502.09;;;12.28;100.00
47104;BME280;32853;52.164;5.400;2023-03-22T07:33:05;100506.31;;;12.48;100.00
47104;BME280;32853;52.164;5.400;2023-03-22T07:35:30;100501.13;;;12.46;100.00
47104;BME280;32853;52.164;5.400;2023-03-22T07:38:03;100504.13;;;12.72;100.00
47104;BME280;32853;52.164;5.400;2023-03-22T07:40:35;100496.53;;;12.67;100.00
47104;BME280;32853;52.164;5.400;2023-03-22T07:43:00;100500.47;;;12.59;100.00
47104;BME280;32853;52.164;5.400;2023-03-22T07:45:26;100496.81;;;12.45;100.00
47104;BME280;32853;52.164;5.400;2023-03-22T07:47:51;100494.03;;;12.48;100.00
47104;BME280;32853;52.164;5.400;2023-03-22T07:50:17;100490.75;;;12.61;100.00
47104;BME280;32853;52.164;5.400;2023-03-22T07:52:43;100493.53;;;12.58;100.00
47104;BME280;32853;52.164;5.400;2023-03-22T07:55:10;100455.06;;;12.25;100.00
47104;BME280;32853;52.164;5.400;2023-03-22T07:57:37;100479.97;;;12.49;100.00
47104;BME280;32853;52.164;5.400;2023-03-22T08:00:06;100452.25;;;12.45;100.00
47104;BME280;32853;52.164;5.400;2023-03-22T08:02:34;100492.88;;;12.86;100.00
47104;BME280;32853;52.164;5.400;2023-03-22T08:05:01;100497.72;;;12.93;100.00
47104;BME280;32853;52.164;5.400;2023-03-22T08:07:27;100473.22;;;12.61;100.00
47104;BME280;32853;52.164;5.400;2023-03-22T08:09:55;100456.63;;;12.45;100.00
47104;BME280;32853;52.164;5.400;2023-03-22T08:12:21;100488.34;;;12.89;100.00
47104;BME280;32853;52.164;5.400;2023-03-22T08:14:46;100468.69;;;12.65;100.00
47104;BME280;32853;52.164;5.400;2023-03-22T08:17:15;100471.03;;;12.54;100.00
47104;BME280;32853;52.164;5.400;2023-03-22T08:19:41;100497.53;;;12.65;100.00
47104;BME280;32853;52.164;5.400;2023-03-22T08:22:06;100441.78;;;12.28;100.00
47104;BME280;32853;52.164;5.400;2023-03-22T08:24:32;100450.50;;;12.29;100.00
47104;BME280;32853;52.164;5.400;2023-03-22T08:26:57;100413.38;;;12.36;100.00
47104;BME280;32853;52.164;5.400;2023-03-22T08:29:22;100488.06;;;12.78;100.00
47104;BME280;32853;52.164;5.400;2023-03-22T08:31:49;100479.25;;;12.63;100.00
47104;BME280;32853;52.164;5.400;2023-03-22T08:34:16;100495.75;;;12.97;100.00
47104;BME280;32853;52.164;5.400;2023-03-22T08:37:11;100496.03;;;12.92;100.00
47104;BME280;32853;52.164;5.400;2023-03-22T08:39:37;100499.50;;;12.77;100.00
47104;BME280;32853;52.164;5.400;2023-03-22T08:42:16;100479.69;;;12.87;100.00
47104;BME280;32853;52.164;5.400;2023-03-22T08:44:41;100499.25;;;13.13;100.00
47104;BME280;32853;52.164;5.400;2023-03-22T08:47:07;100483.31;;;13.16;100.00
47104;BME280;32853;52.164;5.400;2023-03-22T08:49:33;100496.47;;;13.00;100.00
47104;BME280;32853;52.164;5.400;2023-03-22T08:52:05;100491.03;;;13.03;100.00
47104;BME280;32853;52.164;5.400;2023-03-22T08:54:32;100480.44;;;13.05;100.00
47104;BME280;32853;52.164;5.400;2023-03-22T08:56:58;100328.03;;;11.99;100.00
47104;BME280;32853;52.164;5.400;2023-03-22T08:59:23;100444.78;;;12.85;100.00
47104;BME280;32853;52.164;5.400;2023-03-22T09:01:49;100488.50;;;13.02;100.00
47104;BME280;32853;52.164;5.400;2023-03-22T09:04:14;100495.50;;;13.17;100.00
47104;BME280;32853;52.164;5.400;2023-03-22T09:06:39;100475.19;;;12.73;100.00
47104;BME280;32853;52.164;5.400;2023-03-22T09:09:08;100446.31;;;12.58;100.00
47104;BME280;32853;52.164;5.400;2023-03-22T09:11:33;100490.25;;;12.86;100.00
47104;BME280;32853;52.164;5.400;2023-03-22T09:14:01;100496.19;;;13.05;100.00
47104;BME280;32853;52.164;5.400;2023-03-22T09:16:26;100462.84;;;12.91;100.00
47104;BME280;32853;52.164;5.400;2023-03-22T09:18:55;100498.22;;;13.16;100.00
47104;BME280;32853;52.164;5.400;2023-03-22T09:21:22;100456.59;;;12.78;100.00
47104;BME280;32853;52.164;5.400;2023-03-22T09:23:48;100501.88;;;12.82;100.00
47104;BME280;32853;52.164;5.400;2023-03-22T09:26:14;100380.13;;;12.21;100.00
47104;BME280;32853;52.164;5.400;2023-03-22T09:28:40;100506.44;;;12.94;100.00
47104;BME280;32853;52.164;5.400;2023-03-22T09:31:09;100453.66;;;12.51;100.00
47104;BME280;32853;52.164;5.400;2023-03-22T09:33:42;100500.84;;;12.84;100.00
47104;BME280;32853;52.164;5.400;2023-03-22T09:36:09;100454.34;;;12.39;100.00
47104;BME280;32853;52.164;5.400;2023-03-22T09:38:36;100503.44;;;12.53;100.00
47104;BME280;32853;52.164;5.400;2023-03-22T09:41:23;100504.56;;;12.64;100.00
47104;BME280;32853;52.164;5.400;2023-03-22T09:43:56;100461.78;;;12.46;100.00
47104;BME280;32853;52.164;5.400;2023-03-22T09:46:36;100499.66;;;12.74;100.00
47104;BME280;32853;52.164;5.400;2023-03-22T09:49:18;100501.00;;;12.65;100.00
47104;BME280;32853;52.164;5.400;2023-03-22T09:51:49;100430.53;;;12.10;100.00
47104;BME280;32853;52.164;5.400;2023-03-22T09:54:36;100460.34;;;12.41;100.00
47104;BME280;32853;52.164;5.400;2023-03-22T09:57:37;100498.13;;;12.54;100.00
47104;BME280;32853;52.164;5.400;2023-03-22T10:03:22;100490.28;;;12.37;100.00
47104;BME280;32853;52.164;5.400;2023-03-22T10:06:01;100495.50;;;12.21;100.00
47104;BME280;32853;52.164;5.400;2023-03-22T10:09:04;100475.78;;;12.30;100.00
47104;BME280;32853;52.164;5.400;2023-03-22T10:16:34;100481.75;;;12.33;100.00
47104;BME280;32853;52.164;5.400;2023-03-22T10:19:18;100475.44;;;12.20;100.00
47104;BME280;32853;52.164;5.400;2023-03-22T10:21:46;100484.38;;;12.33;100.00
47104;BME280;32853;52.164;5.400;2023-03-22T10:24:24;100487.22;;;12.29;100.00
47104;BME280;32853;52.164;5.400;2023-03-22T10:26:54;100486.91;;;12.35;100.00
47104;BME280;32853;52.164;5.400;2023-03-22T10:32:43;100475.84;;;12.45;100.00
47104;BME280;32853;52.164;5.400;2023-03-22T10:35:22;100458.06;;;12.35;100.00
47104;BME280;32853;52.164;5.400;2023-03-22T10:37:48;100397.50;;;12.06;100.00
47104;BME280;32853;52.164;5.400;2023-03-22T10:40:35;100439.06;;;12.14;100.00
47104;BME280;32853;52.164;5.400;2023-03-22T10:43:09;100444.66;;;12.24;100.00
47104;BME280;32853;52.164;5.400;2023-03-22T10:45:40;100493.28;;;12.62;100.00
47104;BME280;32853;52.164;5.400;2023-03-22T10:48:12;100497.47;;;12.66;100.00
47104;BME280;32853;52.164;5.400;2023-03-22T10:50:43;100459.28;;;12.12;100.00
47104;BME280;32853;52.164;5.400;2023-03-22T10:53:23;100494.38;;;12.42;100.00
47104;BME280;32853;52.164;5.400;2023-03-22T10:55:49;100477.91;;;12.56;100.00
47104;BME280;32853;52.164;5.400;2023-03-22T10:58:17;100464.94;;;12.53;100.00
47104;BME280;32853;52.164;5.400;2023-03-22T11:00:53;100484.25;;;12.84;100.00
47104;BME280;32853;52.164;5.400;2023-03-22T11:06:11;100509.50;;;12.86;100.00
47104;BME280;32853;52.164;5.400;2023-03-22T11:11:37;100460.16;;;12.28;100.00
47104;BME280;32853;52.164;5.400;2023-03-22T11:14:24;100447.31;;;12.39;100.00
47104;BME280;32853;52.164;5.400;2023-03-22T11:16:54;100426.59;;;12.35;100.00
47104;BME280;32853;52.164;5.400;2023-03-22T11:19:24;100396.34;;;12.12;100.00
47104;BME280;32853;52.164;5.400;2023-03-22T11:21:51;100391.97;;;12.12;100.00
47104;BME280;32853;52.164;5.400;2023-03-22T11:24:23;100460.28;;;12.74;100.00
47104;BME280;32853;52.164;5.400;2023-03-22T11:27:17;100365.00;;;12.10;100.00
47104;BME280;32853;52.164;5.400;2023-03-22T11:29:49;100424.31;;;12.44;100.00
47104;BME280;32853;52.164;5.400;2023-03-22T11:32:41;100458.88;;;12.68;100.00
47104;BME280;32853;52.164;5.400;2023-03-22T11:35:20;100465.72;;;12.71;100.00
47104;BME280;32853;52.164;5.400;2023-03-22T11:37:52;100458.44;;;12.76;100.00
47104;BME280;32853;52.164;5.400;2023-03-22T11:40:26;100404.03;;;12.64;100.00
47104;BME280;32853;52.164;5.400;2023-03-22T11:43:06;100451.50;;;12.75;100.00
47104;BME280;32853;52.164;5.400;2023-03-22T11:45:35;100475.03;;;12.92;100.00
47104;BME280;32853;52.164;5.400;2023-03-22T11:48:05;100452.50;;;12.72;100.00
47104;BME280;32853;52.164;5.400;2023-03-22T11:50:36;100466.91;;;12.81;100.00
47104;BME280;32853;52.164;5.400;2023-03-22T11:53:03;100413.97;;;12.41;100.00
47104;BME280;32853;52.164;5.400;2023-03-22T11:55:35;100479.03;;;12.99;100.00
47104;BME280;32853;52.164;5.400;2023-03-22T11:58:01;100487.50;;;12.89;100.00
47104;BME280;32853;52.164;5.400;2023-03-22T12:00:29;100439.44;;;12.39;100.00
47104;BME280;32853;52.164;5.400;2023-03-22T12:03:03;100498.34;;;12.98;100.00
47104;BME280;32853;52.164;5.400;2023-03-22T12:05:36;100508.63;;;12.86;100.00
47104;BME280;32853;52.164;5.400;2023-03-22T12:08:26;100494.34;;;12.91;100.00
47104;BME280;32853;52.164;5.400;2023-03-22T12:11:01;100435.13;;;12.38;100.00
47104;BME280;32853;52.164;5.400;2023-03-22T12:16:11;100486.22;;;12.80;100.00
47104;BME280;32853;52.164;5.400;2023-03-22T12:18:47;100471.63;;;12.74;100.00
47104;BME280;32853;52.164;5.400;2023-03-22T12:21:15;100433.38;;;12.55;100.00
47104;BME280;32853;52.164;5.400;2023-03-22T12:23:41;100450.50;;;12.77;100.00
47104;BME280;32853;52.164;5.400;2023-03-22T12:26:26;100492.22;;;13.14;100.00
47104;BME280;32853;52.164;5.400;2023-03-22T12:29:03;100495.03;;;13.11;100.00
47104;BME280;32853;52.164;5.400;2023-03-22T12:31:37;100491.19;;;13.16;100.00
47104;BME280;32853;52.164;5.400;2023-03-22T12:34:08;100418.91;;;12.63;100.00
47104;BME280;32853;52.164;5.400;2023-03-22T12:36:45;100478.59;;;12.91;100.00
47104;BME280;32853;52.164;5.400;2023-03-22T12:39:21;100459.91;;;12.97;100.00
47104;BME280;32853;52.164;5.400;2023-03-22T12:42:01;100460.38;;;13.04;100.00
47104;BME280;32853;52.164;5.400;2023-03-22T12:44:32;100482.91;;;13.08;100.00
47104;BME280;32853;52.164;5.400;2023-03-22T12:47:14;100491.47;;;13.12;100.00
47104;BME280;32853;52.164;5.400;2023-03-22T12:49:50;100483.78;;;13.08;100.00
47104;BME280;32853;52.164;5.400;2023-03-22T12:54:58;100469.25;;;13.17;100.00
47104;BME280;32853;52.164;5.400;2023-03-22T12:57:25;100463.25;;;13.15;100.00
47104;BME280;32853;52.164;5.400;2023-03-22T12:59:51;100473.75;;;13.15;100.00
47104;BME280;32853;52.164;5.400;2023-03-22T13:02:24;100462.75;;;13.24;100.00
47104;BME280;32853;52.164;5.400;2023-03-22T13:04:54;100466.06;;;13.28;100.00
47104;BME280;32853;52.164;5.400;2023-03-22T13:10:36;100483.19;;;13.19;100.00
47104;BME280;32853;52.164;5.400;2023-03-22T13:15:33;100432.16;;;13.07;100.00
47104;BME280;32853;52.164;5.400;2023-03-22T13:18:01;100482.00;;;13.25;100.00
47104;BME280;32853;52.164;5.400;2023-03-22T13:20:29;100455.63;;;12.95;100.00
47104;BME280;32853;52.164;5.400;2023-03-22T13:23:01;100489.78;;;13.11;100.00
47104;BME280;32853;52.164;5.400;2023-03-22T13:25:32;100438.78;;;12.83;100.00
47104;BME280;32853;52.164;5.400;2023-03-22T13:28:25;100481.63;;;13.15;100.00
47104;BME280;32853;52.164;5.400;2023-03-22T13:30:56;100480.47;;;13.21;100.00
47104;BME280;32853;52.164;5.400;2023-03-22T13:33:35;100464.53;;;13.08;100.00
47104;BME280;32853;52.164;5.400;2023-03-22T13:36:06;100439.03;;;12.94;100.00
47104;BME280;32853;52.164;5.400;2023-03-22T13:38:58;100429.81;;;13.03;100.00
47104;BME280;32853;52.164;5.400;2023-03-22T13:41:34;100442.88;;;13.20;100.00
47104;BME280;32853;52.164;5.400;2023-03-22T13:44:19;100455.19;;;13.18;100.00
47104;BME280;32853;52.164;5.400;2023-03-22T13:46:50;100483.91;;;13.37;100.00
47104;BME280;32853;52.164;5.400;2023-03-22T13:49:32;100473.84;;;13.29;100.00
47104;BME280;32853;52.164;5.400;2023-03-22T13:52:06;100452.34;;;13.23;100.00
47104;BME280;32853;52.164;5.400;2023-03-22T13:54:37;100416.53;;;12.90;100.00
47104;BME280;32853;52.164;5.400;2023-03-22T13:57:15;100430.72;;;13.18;100.00
47104;BME280;32853;52.164;5.400;2023-03-22T14:00:03;100447.50;;;13.31;100.00
47104;BME280;32853;52.164;5.400;2023-03-22T14:02:39;100463.00;;;13.35;100.00
47104;BME280;32853;52.164;5.400;2023-03-22T14:05:18;100457.56;;;13.38;100.00
47104;BME280;32853;52.164;5.400;2023-03-22T14:07:49;100472.78;;;13.48;100.00
47104;BME280;32853;52.164;5.400;2023-03-22T14:12:50;100462.28;;;13.48;100.00